createdAt,value
2022-11-29T00:01:03.854Z,25.23
2022-11-29T00:03:30.698Z,25.60
2022-11-29T00:06:03.395Z,22.35
2022-11-29T00:08:29.715Z,20.95
2022-11-29T00:10:56.034Z,23.17
2022-11-29T00:13:22.348Z,22.73
2022-11-29T00:15:48.737Z,22.33
2022-11-29T00:18:15.109Z,22.25
2022-11-29T00:20:41.461Z,26.13
2022-11-29T00:23:07.820Z,25.33
2022-11-29T00:25:34.181Z,23.80
2022-11-29T00:28:00.522Z,21.13
2022-11-29T00:30:27.758Z,25.52
2022-11-29T00:32:54.105Z,23.30
2022-11-29T00:35:20.577Z,27.20
2022-11-29T00:37:46.898Z,22.75
2022-11-29T00:40:13.288Z,24.27
2022-11-29T00:42:39.773Z,22.80
2022-11-29T00:45:06.705Z,21.15
2022-11-29T00:47:33.027Z,21.90
2022-11-29T00:49:59.379Z,25.35
2022-11-29T00:52:25.700Z,24.65
2022-11-29T00:54:52.045Z,26.05
2022-11-29T00:57:18.352Z,24.75
2022-11-29T00:59:44.695Z,22.17
2022-11-29T01:02:11.116Z,23.13
2022-11-29T01:04:37.519Z,24.30
2022-11-29T01:07:03.852Z,24.10
2022-11-29T01:09:30.233Z,21.27
2022-11-29T01:11:56.638Z,24.15
2022-11-29T01:14:23.130Z,22.13
2022-11-29T01:16:49.573Z,26.63
2022-11-29T01:19:15.922Z,32.22
2022-11-29T01:21:42.369Z,25.88
2022-11-29T01:24:08.830Z,23.45
2022-11-29T01:26:35.238Z,25.35
2022-11-29T01:29:01.580Z,23.20
2022-11-29T01:31:36.056Z,24.83
2022-11-29T01:34:04.577Z,26.70
2022-11-29T01:36:31.238Z,27.20
2022-11-29T01:39:01.864Z,26.30
2022-11-29T01:41:31.525Z,32.58
2022-11-29T01:43:59.770Z,32.22
2022-11-29T01:46:28.161Z,34.38
2022-11-29T01:49:00.297Z,27.38
2022-11-29T01:51:28.243Z,26.08
2022-11-29T01:53:55.194Z,26.25
2022-11-29T01:56:22.278Z,30.70
2022-11-29T01:58:48.639Z,30.23
2022-11-29T02:01:15.125Z,24.77
2022-11-29T02:03:41.568Z,32.33
2022-11-29T02:06:08.549Z,25.95
2022-11-29T02:08:41.053Z,24.50
2022-11-29T02:11:26.150Z,27.10
2022-11-29T02:14:30.290Z,26.73
2022-11-29T02:17:15.249Z,25.75
2022-11-29T02:20:11.498Z,28.80
2022-11-29T02:22:49.444Z,26.83
2022-11-29T02:25:43.668Z,26.17
2022-11-29T02:28:25.825Z,21.83
2022-11-29T02:31:10.829Z,23.83
2022-11-29T02:34:08.333Z,23.88
2022-11-29T02:36:56.066Z,20.42
2022-11-29T02:39:36.770Z,19.63
2022-11-29T02:42:56.964Z,21.33
2022-11-29T02:45:38.487Z,22.20
2022-11-29T02:48:23.180Z,23.13
2022-11-29T02:51:00.746Z,24.00
2022-11-29T02:53:37.036Z,22.65
2022-11-29T02:56:26.412Z,25.42
2022-11-29T02:59:04.189Z,21.30
2022-11-29T03:02:08.394Z,27.90
2022-11-29T03:04:57.813Z,24.25
2022-11-29T03:08:23.453Z,29.65
2022-11-29T03:10:49.812Z,23.23
2022-11-29T03:13:50.485Z,24.60
2022-11-29T03:16:51.013Z,26.77
2022-11-29T03:19:29.499Z,27.75
2022-11-29T03:22:29.366Z,35.03
2022-11-29T03:25:10.477Z,28.35
2022-11-29T03:28:06.391Z,26.15
2022-11-29T03:30:38.050Z,27.13
2022-11-29T03:33:40.073Z,28.00
2022-11-29T03:36:18.766Z,25.50
2022-11-29T03:38:47.009Z,23.90
2022-11-29T03:41:43.773Z,25.60
2022-11-29T03:47:02.082Z,19.85
2022-11-29T03:49:47.437Z,30.58
2022-11-29T03:52:24.651Z,23.77
2022-11-29T03:55:10.315Z,24.23
2022-11-29T03:57:50.441Z,23.23
2022-11-29T04:00:18.534Z,23.27
2022-11-29T04:03:24.556Z,21.75
2022-11-29T04:06:18.946Z,22.60
2022-11-29T04:09:07.070Z,26.10
2022-11-29T04:12:01.386Z,35.22
2022-11-29T04:14:30.931Z,23.35
2022-11-29T04:16:57.169Z,24.67
2022-11-29T04:19:32.820Z,25.30
2022-11-29T04:22:28.523Z,22.13
2022-11-29T04:24:59.229Z,24.75
2022-11-29T04:27:51.642Z,24.10
2022-11-29T04:30:25.510Z,20.73
2022-11-29T04:33:36.280Z,24.20
2022-11-29T04:36:13.841Z,23.10
2022-11-29T04:38:40.160Z,24.25
2022-11-29T04:41:41.469Z,21.38
2022-11-29T04:44:19.750Z,21.70
2022-11-29T04:46:52.215Z,22.63
2022-11-29T04:49:36.126Z,23.33
2022-11-29T04:52:29.887Z,25.35
2022-11-29T04:55:26.166Z,26.38
2022-11-29T04:58:19.164Z,24.20
2022-11-29T05:01:00.420Z,23.88
2022-11-29T05:03:38.577Z,24.48
2022-11-29T05:06:25.090Z,30.67
2022-11-29T05:09:15.300Z,26.17
2022-11-29T05:12:21.499Z,28.55
2022-11-29T05:15:00.054Z,23.92
2022-11-29T05:17:45.228Z,27.85
2022-11-29T05:20:30.277Z,28.00
2022-11-29T05:23:10.984Z,26.73
2022-11-29T05:25:49.310Z,25.27
2022-11-29T05:28:24.306Z,23.92
2022-11-29T05:31:18.228Z,25.83
2022-11-29T05:34:11.616Z,25.35
2022-11-29T05:37:05.246Z,22.45
2022-11-29T05:39:55.915Z,23.42
2022-11-29T05:42:42.527Z,21.65
2022-11-29T05:45:19.684Z,20.10
2022-11-29T05:48:25.026Z,17.85
2022-11-29T05:51:18.533Z,21.30
2022-11-29T05:53:44.828Z,22.77
2022-11-29T05:56:40.161Z,23.13
2022-11-29T05:59:13.961Z,21.63
2022-11-29T06:01:55.801Z,24.20
2022-11-29T06:04:46.652Z,23.48
2022-11-29T06:07:22.500Z,24.80
2022-11-29T06:10:04.013Z,26.63
2022-11-29T06:12:35.787Z,23.85
2022-11-29T06:15:37.478Z,24.42
2022-11-29T06:18:37.797Z,24.98
2022-11-29T06:21:28.651Z,22.98
2022-11-29T06:24:09.000Z,21.65
2022-11-29T06:27:14.018Z,21.83
2022-11-29T06:30:07.896Z,23.50
2022-11-29T06:32:44.501Z,21.50
2022-11-29T06:35:37.926Z,24.05
2022-11-29T06:38:13.887Z,25.00
2022-11-29T06:50:43.745Z,21.50
2022-11-29T06:53:30.776Z,22.95
2022-11-29T06:56:16.489Z,21.67
2022-11-29T06:58:55.750Z,18.88
2022-11-29T07:01:30.977Z,20.27
2022-11-29T07:04:06.355Z,24.13
2022-11-29T07:06:34.912Z,17.88
2022-11-29T07:09:08.635Z,20.83
2022-11-29T07:11:35.310Z,19.10
2022-11-29T07:14:01.948Z,21.52
2022-11-29T07:16:36.773Z,23.63
2022-11-29T07:19:24.731Z,23.13
2022-11-29T07:21:57.021Z,21.27
2022-11-29T07:24:48.249Z,20.42
2022-11-29T07:27:20.302Z,23.40
2022-11-29T07:30:11.826Z,25.48
2022-11-29T07:33:16.614Z,20.63
2022-11-29T07:36:18.240Z,28.33
2022-11-29T07:39:32.003Z,17.67
2022-11-29T07:42:20.028Z,23.27
2022-11-29T07:45:03.683Z,26.83
2022-11-29T07:47:35.287Z,26.85
2022-11-29T07:50:02.197Z,25.15
2022-11-29T07:52:28.676Z,29.80
2022-11-29T07:54:55.705Z,30.85
2022-11-29T07:57:22.602Z,30.48
2022-11-29T07:59:49.149Z,23.15
2022-11-29T08:02:26.378Z,29.48
2022-11-29T08:04:52.794Z,27.85
2022-11-29T08:07:19.140Z,28.85
2022-11-29T08:09:45.740Z,28.85
2022-11-29T08:12:12.463Z,26.90
2022-11-29T08:14:38.812Z,27.27
2022-11-29T08:17:05.130Z,31.30
2022-11-29T08:19:31.627Z,27.60
2022-11-29T08:21:57.993Z,24.05
2022-11-29T08:24:24.342Z,26.45
2022-11-29T08:26:50.660Z,25.90
2022-11-29T08:29:16.987Z,25.58
2022-11-29T08:31:43.567Z,32.30
2022-11-29T08:34:10.636Z,26.95
2022-11-29T08:36:37.491Z,24.10
2022-11-29T08:39:09.221Z,28.38
2022-11-29T08:41:36.392Z,25.55
2022-11-29T08:44:04.859Z,26.10
2022-11-29T08:46:50.312Z,24.60
2022-11-29T08:49:16.936Z,23.23
2022-11-29T08:51:43.260Z,32.55
2022-11-29T08:54:10.153Z,25.65
2022-11-29T08:59:23.881Z,29.77
2022-11-29T09:01:50.303Z,26.60
2022-11-29T09:04:17.031Z,26.00
2022-11-29T09:06:44.342Z,26.10
2022-11-29T09:09:10.670Z,27.23
2022-11-29T09:11:37.135Z,39.00
2022-11-29T09:14:07.090Z,40.05
2022-11-29T09:16:36.477Z,33.33
2022-11-29T09:19:04.270Z,35.28
2022-11-29T09:21:32.689Z,36.28
2022-11-29T09:24:01.023Z,36.95
2022-11-29T09:26:30.929Z,29.60
2022-11-29T09:29:02.707Z,36.25
2022-11-29T09:31:31.098Z,34.55
2022-11-29T09:33:57.935Z,24.80
2022-11-29T09:36:28.580Z,22.30
2022-11-29T09:38:56.266Z,24.02
2022-11-29T09:41:45.637Z,27.60
2022-11-29T09:44:29.959Z,23.85
2022-11-29T09:47:00.272Z,23.35
2022-11-29T09:49:42.225Z,25.92
2022-11-29T09:52:26.749Z,27.30
2022-11-29T09:55:24.454Z,28.38
2022-11-29T09:57:53.596Z,28.38
2022-11-29T10:00:20.614Z,32.55
2022-11-29T10:03:01.902Z,30.92
2022-11-29T10:05:38.677Z,38.03
2022-11-29T10:08:14.182Z,45.33
2022-11-29T10:10:46.193Z,36.17
2022-11-29T10:13:34.209Z,37.50
2022-11-29T10:16:15.826Z,35.13
2022-11-29T10:18:55.790Z,46.22
2022-11-29T10:21:28.458Z,39.35
2022-11-29T10:23:59.270Z,45.10
2022-11-29T10:26:30.601Z,38.75
2022-11-29T10:29:00.023Z,39.88
2022-11-29T10:31:28.545Z,44.33
2022-11-29T10:33:56.375Z,47.80
2022-11-29T10:36:33.246Z,36.47
2022-11-29T10:39:09.956Z,34.13
2022-11-29T10:41:39.383Z,34.88
2022-11-29T10:44:05.863Z,37.25
2022-11-29T10:46:34.831Z,32.33
2022-11-29T10:49:06.830Z,35.78
2022-11-29T10:51:34.720Z,33.70
2022-11-29T10:54:16.758Z,38.13
2022-11-29T10:56:44.436Z,35.38
2022-11-29T10:59:23.611Z,34.38
2022-11-29T11:01:50.976Z,36.80
2022-11-29T11:04:31.886Z,33.45
2022-11-29T11:07:01.350Z,34.15
2022-11-29T11:09:40.337Z,30.90
2022-11-29T11:12:16.802Z,32.45
2022-11-29T11:14:44.608Z,24.23
2022-11-29T11:17:26.089Z,25.92
2022-11-29T11:20:02.020Z,23.92
2022-11-29T11:22:29.778Z,26.10
2022-11-29T11:25:03.688Z,32.00
2022-11-29T11:27:41.521Z,35.42
2022-11-29T11:30:22.379Z,35.17
2022-11-29T11:33:09.285Z,36.72
2022-11-29T11:35:37.141Z,38.90
2022-11-29T11:38:03.614Z,36.40
2022-11-29T11:40:30.933Z,39.22
2022-11-29T11:43:00.507Z,40.13
2022-11-29T11:45:33.001Z,39.65
2022-11-29T11:48:11.821Z,38.22
2022-11-29T11:50:44.888Z,40.13
2022-11-29T11:53:36.954Z,35.67
2022-11-29T11:56:12.413Z,37.80
2022-11-29T11:58:56.747Z,34.40
2022-11-29T12:01:30.980Z,35.10
2022-11-29T12:04:12.411Z,41.10
2022-11-29T12:06:38.709Z,37.63
2022-11-29T12:09:08.320Z,28.83
2022-11-29T12:11:51.238Z,37.17
2022-11-29T12:14:28.946Z,32.53
2022-11-29T12:17:05.078Z,37.67
2022-11-29T12:19:39.471Z,34.13
2022-11-29T12:22:13.245Z,34.90
2022-11-29T12:24:50.425Z,36.83
2022-11-29T12:27:16.859Z,32.30
2022-11-29T12:29:43.224Z,35.30
2022-11-29T12:32:40.210Z,34.22
2022-11-29T12:35:35.932Z,37.05
2022-11-29T12:38:27.129Z,35.08
2022-11-29T12:40:57.507Z,37.78
2022-11-29T12:43:58.158Z,36.13
2022-11-29T12:46:27.293Z,34.63
2022-11-29T12:49:21.369Z,33.55
2022-11-29T12:52:09.417Z,33.20
2022-11-29T12:54:43.597Z,32.78
2022-11-29T12:57:44.938Z,30.05
2022-11-29T13:00:21.116Z,29.90
2022-11-29T13:02:56.587Z,28.05
2022-11-29T13:05:33.609Z,31.73
2022-11-29T13:08:22.715Z,27.98
2022-11-29T13:11:03.979Z,29.70
2022-11-29T13:13:40.926Z,33.53
2022-11-29T13:16:33.833Z,28.70
2022-11-29T13:19:05.057Z,38.55
2022-11-29T13:21:47.497Z,36.60
2022-11-29T13:24:38.373Z,42.83
2022-11-29T13:27:16.034Z,32.50
2022-11-29T13:29:42.918Z,34.58
2022-11-29T13:32:32.762Z,33.55
2022-11-29T13:35:14.252Z,33.80
2022-11-29T13:37:50.593Z,34.75
2022-11-29T13:40:44.019Z,35.95
2022-11-29T13:43:30.885Z,31.30
2022-11-29T13:46:18.950Z,35.38
2022-11-29T13:48:57.644Z,32.17
2022-11-29T13:51:31.048Z,32.10
2022-11-29T13:54:01.042Z,35.70
2022-11-29T13:56:46.538Z,34.40
2022-11-29T13:59:41.584Z,29.92
2022-11-29T14:02:32.370Z,35.85
2022-11-29T14:04:58.896Z,30.15
2022-11-29T14:07:25.364Z,34.17
2022-11-29T14:10:03.081Z,29.65
2022-11-29T14:12:53.357Z,28.83
2022-11-29T14:15:29.187Z,28.13
2022-11-29T14:17:58.740Z,26.17
2022-11-29T14:20:25.217Z,26.13
2022-11-29T14:23:06.698Z,27.25
2022-11-29T14:25:54.977Z,34.28
2022-11-29T14:28:21.304Z,25.20
2022-11-29T14:30:47.618Z,27.27
2022-11-29T14:33:35.996Z,26.63
2022-11-29T14:36:14.633Z,27.55
2022-11-29T14:39:08.443Z,30.35
2022-11-29T14:42:04.886Z,26.00
2022-11-29T14:44:32.937Z,28.15
2022-11-29T14:47:03.013Z,26.45
2022-11-29T14:49:31.368Z,24.30
2022-11-29T14:52:08.732Z,26.77
2022-11-29T14:54:36.960Z,30.77
2022-11-29T14:57:51.134Z,28.30
2022-11-29T15:00:18.863Z,26.33
2022-11-29T15:02:55.256Z,28.58
2022-11-29T15:05:30.832Z,29.55
2022-11-29T15:08:32.231Z,28.70
2022-11-29T15:11:14.644Z,23.42
2022-11-29T15:14:03.798Z,23.98
2022-11-29T15:16:50.780Z,74.35
2022-11-29T15:19:42.109Z,54.35
2022-11-29T15:22:17.934Z,35.58
2022-11-29T15:24:55.522Z,30.75
2022-11-29T15:27:22.662Z,37.22
2022-11-29T15:29:49.119Z,27.83
2022-11-29T15:32:20.910Z,29.98
2022-11-29T15:34:50.393Z,25.17
2022-11-29T15:37:39.533Z,33.72
2022-11-29T15:40:12.162Z,31.63
2022-11-29T15:42:50.612Z,36.28
2022-11-29T15:45:38.352Z,31.50
2022-11-29T15:48:33.835Z,40.10
2022-11-29T15:51:15.566Z,31.85
2022-11-29T15:53:47.451Z,35.78
2022-11-29T15:56:24.653Z,30.33
2022-11-29T15:58:55.440Z,30.80
2022-11-29T16:01:22.082Z,27.67
2022-11-29T16:03:52.770Z,26.95
2022-11-29T16:06:44.224Z,31.48
2022-11-29T16:09:17.615Z,29.33
2022-11-29T16:11:45.909Z,33.67
2022-11-29T16:14:23.592Z,32.95
2022-11-29T16:16:54.935Z,32.53
2022-11-29T16:19:36.146Z,27.40
2022-11-29T16:22:02.376Z,31.10
2022-11-29T16:24:28.948Z,35.50
2022-11-29T16:26:55.957Z,35.15
2022-11-29T16:29:35.734Z,33.25
2022-11-29T16:32:31.569Z,32.75
2022-11-29T16:35:07.041Z,29.80
2022-11-29T16:37:40.311Z,37.60
2022-11-29T16:40:19.922Z,32.40
2022-11-29T16:43:06.570Z,39.47
2022-11-29T16:45:41.132Z,34.70
2022-11-29T16:48:23.126Z,37.88
2022-11-29T16:51:13.191Z,35.85
2022-11-29T16:53:47.710Z,40.80
2022-11-29T16:56:16.524Z,31.65
2022-11-29T16:59:24.894Z,39.05
2022-11-29T17:01:32.248Z,41.30
2022-11-29T17:04:00.032Z,38.25
2022-11-29T17:06:28.496Z,36.40
2022-11-29T17:08:56.771Z,42.33
2022-11-29T17:11:23.318Z,39.40
2022-11-29T17:13:50.192Z,37.58
2022-11-29T17:16:19.513Z,39.00
2022-11-29T17:18:45.942Z,30.83
2022-11-29T17:21:32.624Z,35.42
2022-11-29T17:23:58.942Z,34.22
2022-11-29T17:26:25.461Z,39.75
2022-11-29T17:28:52.149Z,40.00
2022-11-29T17:31:21.140Z,40.40
2022-11-29T17:33:47.861Z,38.92
2022-11-29T17:36:16.599Z,40.53
2022-11-29T17:38:44.374Z,43.47
2022-11-29T17:41:17.048Z,44.28
2022-11-29T17:43:43.710Z,35.22
2022-11-29T17:46:12.225Z,36.67
2022-11-29T17:48:38.981Z,39.75
2022-11-29T17:51:22.810Z,38.80
2022-11-29T17:53:53.762Z,38.10
2022-11-29T17:56:23.059Z,40.35
2022-11-29T17:58:54.306Z,36.78
2022-11-29T18:01:23.584Z,41.17
2022-11-29T18:03:52.798Z,34.75
2022-11-29T18:06:22.362Z,39.10
2022-11-29T18:08:54.721Z,34.15
2022-11-29T18:11:30.964Z,34.03
2022-11-29T18:13:58.335Z,30.67
2022-11-29T18:16:30.518Z,35.60
2022-11-29T18:19:00.663Z,33.28
2022-11-29T18:21:27.795Z,30.23
2022-11-29T18:23:54.660Z,31.38
2022-11-29T18:26:23.833Z,32.28
2022-11-29T18:28:50.852Z,32.30
2022-11-29T18:31:19.654Z,30.95
2022-11-29T18:33:48.682Z,31.80
2022-11-29T18:36:21.045Z,27.73
2022-11-29T18:38:48.476Z,35.72
2022-11-29T18:41:20.697Z,30.83
2022-11-29T18:43:48.365Z,30.88
2022-11-29T18:46:19.431Z,26.98
2022-11-29T18:48:47.550Z,25.90
2022-11-29T18:51:15.905Z,31.50
2022-11-29T18:53:43.118Z,28.77
2022-11-29T18:56:18.584Z,24.85
2022-11-29T18:58:47.653Z,23.85
2022-11-29T19:01:16.586Z,23.35
2022-11-29T19:03:45.273Z,24.73
2022-11-29T19:06:16.508Z,23.08
2022-11-29T19:08:44.026Z,24.52
2022-11-29T19:11:15.909Z,23.88
2022-11-29T19:13:42.569Z,22.23
2022-11-29T19:16:13.565Z,23.15
2022-11-29T19:18:40.072Z,22.52
2022-11-29T19:21:11.892Z,24.65
2022-11-29T19:23:38.692Z,23.52
2022-11-29T19:26:13.839Z,22.50
2022-11-29T19:28:44.682Z,22.70
2022-11-29T19:31:14.880Z,20.55
2022-11-29T19:33:42.507Z,21.30
2022-11-29T19:36:12.104Z,25.90
2022-11-29T19:38:39.519Z,22.35
2022-11-29T19:41:09.764Z,20.48
2022-11-29T19:43:36.480Z,21.23
2022-11-29T19:46:13.860Z,21.83
2022-11-29T19:48:40.396Z,21.65
2022-11-29T19:51:08.327Z,22.77
2022-11-29T19:53:35.457Z,24.13
2022-11-29T19:56:10.436Z,25.02
2022-11-29T19:58:37.068Z,25.93
2022-11-29T20:01:05.758Z,24.25
2022-11-29T20:03:32.315Z,29.02
2022-11-29T20:05:58.905Z,21.55
2022-11-29T20:08:25.346Z,35.20
2022-11-29T20:10:52.009Z,29.67
2022-11-29T20:13:18.381Z,28.55
2022-11-29T20:15:44.767Z,22.08
2022-11-29T20:18:12.526Z,24.63
2022-11-29T20:20:38.927Z,22.52
2022-11-29T20:23:05.325Z,23.60
2022-11-29T20:25:31.653Z,22.58
2022-11-29T20:27:58.427Z,24.20
2022-11-29T20:30:25.781Z,24.02
2022-11-29T20:32:52.236Z,24.50
2022-11-29T20:35:19.371Z,19.77
2022-11-29T20:37:45.691Z,21.55
2022-11-29T20:40:19.483Z,20.50
2022-11-29T20:42:57.093Z,22.60
2022-11-29T20:45:24.685Z,22.15
2022-11-29T20:47:56.533Z,21.90
2022-11-29T20:50:28.814Z,22.48
2022-11-29T20:53:16.264Z,19.42
2022-11-29T20:55:47.882Z,22.50
2022-11-29T20:58:14.977Z,19.70
2022-11-29T21:00:41.661Z,19.70
2022-11-29T21:03:08.076Z,20.35
2022-11-29T21:05:37.712Z,20.67
2022-11-29T21:08:04.211Z,21.17
2022-11-29T21:10:30.618Z,20.48
2022-11-29T21:12:57.227Z,21.58
2022-11-29T21:15:24.500Z,23.27
2022-11-29T21:17:51.453Z,21.60
2022-11-29T21:20:24.500Z,24.10
2022-11-29T21:23:18.189Z,23.40
2022-11-29T21:26:13.090Z,23.05
2022-11-29T21:28:47.311Z,22.38
2022-11-29T21:31:17.356Z,23.08
2022-11-29T21:33:43.883Z,25.40
2022-11-29T21:36:11.781Z,22.67
2022-11-29T21:38:38.160Z,21.10
2022-11-29T21:41:04.503Z,21.98
2022-11-29T21:44:04.503Z,20.90
2022-11-29T21:51:11.378Z,20.80
2022-11-29T21:53:41.123Z,22.52
2022-11-29T21:56:09.841Z,24.42
2022-11-29T21:58:38.236Z,21.88
2022-11-29T22:01:17.539Z,23.35
2022-11-29T22:03:44.385Z,24.73
2022-11-29T22:06:20.211Z,26.05
2022-11-29T22:11:16.162Z,23.95
2022-11-29T22:14:02.270Z,23.75
2022-11-29T22:16:30.207Z,25.63
2022-11-29T22:18:56.797Z,24.80
2022-11-29T22:21:23.140Z,22.25
2022-11-29T22:23:49.642Z,25.98
2022-11-29T22:26:15.972Z,23.75
2022-11-29T22:28:42.333Z,23.48
2022-11-29T22:31:10.423Z,24.65
2022-11-29T22:33:37.624Z,22.52
2022-11-29T22:36:04.882Z,22.65
2022-11-29T22:38:31.429Z,23.83
2022-11-29T22:41:06.584Z,21.30
2022-11-29T22:43:33.261Z,22.15
2022-11-29T22:46:13.619Z,21.58
2022-11-29T22:48:41.681Z,22.63
2022-11-29T22:51:11.772Z,21.42
2022-11-29T22:53:40.877Z,23.88
2022-11-29T22:56:09.452Z,21.58
2022-11-29T22:58:36.088Z,23.52
2022-11-29T23:01:22.807Z,23.38
2022-11-29T23:03:56.458Z,23.15
2022-11-29T23:06:31.387Z,21.42
2022-11-29T23:09:00.114Z,18.67
2022-11-29T23:11:29.463Z,21.08
2022-11-29T23:13:56.372Z,18.73
2022-11-29T23:16:26.166Z,17.83
2022-11-29T23:18:53.851Z,18.80
2022-11-29T23:21:41.085Z,14.48
2022-11-29T23:24:07.896Z,19.10
2022-11-29T23:26:40.177Z,17.17
2022-11-29T23:29:11.407Z,17.65
2022-11-29T23:31:39.486Z,18.55
2022-11-29T23:34:06.116Z,15.48
2022-11-29T23:36:33.176Z,16.52
2022-11-29T23:39:00.324Z,16.05
2022-11-29T23:41:26.886Z,13.50
2022-11-29T23:43:53.501Z,18.23
2022-11-29T23:46:22.141Z,15.50
2022-11-29T23:48:49.039Z,14.70
2022-11-29T23:51:16.511Z,16.38
2022-11-29T23:53:42.899Z,16.77
2022-11-29T23:56:15.024Z,17.85
2022-11-29T23:58:42.297Z,16.92
